Time;durP1;ratioP1;P1;durP2;ratioP2;P2;SDS_P1;SDS_P2;PMS_P1;PMS_P2;Temp;Humidity;BMP_temperature;BMP_pressure;BME280_temperature;BME280_humidity;BME280_pressure;Samples;Min_cycle;Max_cycle;Signal;HPM_P1;HPM_P2
2023/10/08 00:02:26;;;;;;;5.27;1.23;;;25.10;99.90;;;;;;4994755;28;20209;-69
2023/10/08 00:04:57;;;;;;;5.00;1.10;;;25.20;99.90;;;;;;4985964;28;20237;-69
2023/10/08 00:10:47;;;;;;;2.97;0.90;;;25.50;97.80;;;;;;4988362;28;20185;-69
2023/10/08 00:13:15;;;;;;;2.73;1.20;;;25.90;95.20;;;;;;4994822;28;20194;-69
2023/10/08 00:15:53;;;;;;;3.90;1.10;;;26.70;92.90;;;;;;4994354;28;20186;-69
2023/10/08 00:18:22;;;;;;;2.63;0.80;;;26.90;80.80;;;;;;4994670;28;20182;-68
2023/10/08 00:23:27;;;;;;;3.40;1.20;;;25.20;82.90;;;;;;4994485;28;20229;-70
2023/10/08 00:25:55;;;;;;;4.87;1.20;;;25.80;80.00;;;;;;4994572;28;20171;-70
2023/10/08 00:28:24;;;;;;;3.50;1.00;;;26.10;75.80;;;;;;4993650;28;20214;-70
2023/10/08 00:30:55;;;;;;;3.77;1.13;;;25.90;77.20;;;;;;4990332;28;20257;-70
2023/10/08 00:33:22;;;;;;;5.30;1.30;;;25.20;76.10;;;;;;4994421;28;20234;-68
2023/10/08 00:35:49;;;;;;;2.63;0.93;;;24.10;79.10;;;;;;4994229;28;20175;-68
2023/10/08 00:38:20;;;;;;;5.90;1.37;;;24.30;82.20;;;;;;4985141;28;20264;-70
2023/10/08 00:40:48;;;;;;;4.97;1.13;;;24.90;81.60;;;;;;4984178;28;20302;-68
2023/10/08 00:43:36;;;;;;;2.57;1.10;;;25.90;80.00;;;;;;4974814;28;20176;-73
2023/10/08 00:46:30;;;;;;;3.00;1.07;;;26.40;65.80;;;;;;4974747;28;20612;-68
2023/10/08 00:48:56;;;;;;;4.27;1.03;;;26.60;63.30;;;;;;4948329;28;20205;-70
2023/10/08 00:55:04;;;;;;;2.80;0.80;;;25.50;61.80;;;;;;4981385;28;20183;-69
2023/10/08 00:57:35;;;;;;;1.00;0.70;;;26.00;59.40;;;;;;4991803;28;20336;-71
2023/10/08 01:00:06;;;;;;;2.77;0.97;;;26.80;55.00;;;;;;5011783;28;20276;-70
2023/10/08 01:03:16;;;;;;;3.10;1.10;;;26.50;56.60;;;;;;5011933;28;20344;-69
2023/10/08 01:05:41;;;;;;;1.43;0.90;;;25.90;55.10;;;;;;4987503;28;20237;-69
2023/10/08 01:08:12;;;;;;;3.13;0.93;;;26.20;62.30;;;;;;4992222;28;20223;-70
2023/10/08 01:10:43;;;;;;;1.57;0.80;;;27.10;53.60;;;;;;4992089;28;20186;-70
2023/10/08 01:13:20;;;;;;;2.60;1.00;;;27.40;57.30;;;;;;4991635;28;20194;-70
2023/10/08 01:15:51;;;;;;;2.63;1.10;;;26.90;52.50;;;;;;4991825;28;20198;-70
2023/10/08 01:18:28;;;;;;;1.90;0.80;;;26.00;53.30;;;;;;4991749;28;20190;-70
2023/10/08 01:21:04;;;;;;;3.57;0.90;;;25.70;55.20;;;;;;4992185;28;20185;-71
2023/10/08 01:23:31;;;;;;;5.63;1.03;;;26.70;50.90;;;;;;4992040;28;20178;-69
2023/10/08 01:26:22;;;;;;;3.43;0.93;;;26.70;48.90;;;;;;4975041;28;20195;-69
2023/10/08 01:28:46;;;;;;;5.60;1.00;;;26.20;47.10;;;;;;4971993;28;20277;-69
2023/10/08 01:31:15;;;;;;;3.90;1.20;;;25.20;50.70;;;;;;4972438;28;20235;-69
2023/10/08 01:33:56;;;;;;;1.73;0.70;;;25.20;53.20;;;;;;4971972;28;20191;-70
2023/10/08 01:36:28;;;;;;;4.40;0.77;;;25.90;52.80;;;;;;4991692;28;20613;-71
2023/10/08 01:38:55;;;;;;;1.33;0.70;;;27.30;48.10;;;;;;4991613;28;20261;-70
2023/10/08 01:41:30;;;;;;;1.87;0.90;;;26.80;45.20;;;;;;4991285;28;20183;-68
2023/10/08 01:43:58;;;;;;;2.77;0.90;;;27.30;46.70;;;;;;4974528;28;20659;-69
2023/10/08 01:49:49;;;;;;;5.50;1.00;;;28.30;41.80;;;;;;4974947;28;20191;-68
2023/10/08 01:55:52;;;;;;;3.33;0.90;;;25.20;42.50;;;;;;4975332;28;20198;-71
2023/10/08 01:58:20;;;;;;;3.77;1.10;;;24.10;47.30;;;;;;4975922;28;20201;-70
2023/10/08 02:00:48;;;;;;;2.93;0.80;;;23.30;49.30;;;;;;4986634;28;20595;-67
2023/10/08 02:03:17;;;;;;;5.13;0.93;;;23.50;54.20;;;;;;4994830;28;20214;-68
2023/10/08 02:05:46;;;;;;;2.67;0.93;;;23.60;53.60;;;;;;4994660;28;20182;-68
2023/10/08 02:08:14;;;;;;;4.60;1.00;;;23.20;51.60;;;;;;4995171;28;20254;-67
2023/10/08 02:10:46;;;;;;;2.13;1.10;;;22.90;55.30;;;;;;4994634;28;20179;-68
2023/10/08 02:13:14;;;;;;;4.60;1.07;;;22.80;62.80;;;;;;4975966;28;20278;-68
2023/10/08 02:15:53;;;;;;;4.10;1.13;;;22.70;59.20;;;;;;4979176;28;20274;-68
2023/10/08 02:18:23;;;;;;;3.00;0.87;;;22.70;65.20;;;;;;4994701;28;20256;-68
2023/10/08 02:20:50;;;;;;;3.87;0.80;;;22.80;66.00;;;;;;4995013;28;20191;-68
2023/10/08 02:23:18;;;;;;;3.13;0.90;;;22.90;65.90;;;;;;4995040;28;20235;-69
2023/10/08 02:25:47;;;;;;;2.50;1.10;;;24.10;66.10;;;;;;4977128;28;20255;-67
2023/10/08 02:28:15;;;;;;;3.40;1.30;;;24.90;59.20;;;;;;4993887;28;20222;-68
2023/10/08 02:30:43;;;;;;;2.00;0.80;;;24.50;57.40;;;;;;4994049;28;20234;-68
2023/10/08 02:33:17;;;;;;;6.20;1.10;;;23.60;55.50;;;;;;4984488;28;20829;-70
2023/10/08 02:35:46;;;;;;;2.63;1.10;;;23.20;55.40;;;;;;4975291;28;20191;-69
2023/10/08 02:38:18;;;;;;;3.97;1.10;;;22.90;59.30;;;;;;4986405;28;20208;-70
2023/10/08 02:40:46;;;;;;;4.27;1.23;;;23.10;57.60;;;;;;4976725;28;20656;-68
2023/10/08 02:43:15;;;;;;;5.33;1.20;;;23.70;61.70;;;;;;4995235;28;20186;-68
2023/10/08 02:49:04;;;;;;;3.10;0.87;;;24.80;51.80;;;;;;4973944;28;20213;-67
2023/10/08 02:51:32;;;;;;;2.90;0.77;;;23.70;51.90;;;;;;4957814;28;20195;-69
2023/10/08 02:53:59;;;;;;;3.70;1.53;;;23.80;56.80;;;;;;4975028;28;20582;-68
2023/10/08 02:56:31;;;;;;;3.77;1.00;;;23.40;56.20;;;;;;4974352;28;20206;-70
2023/10/08 02:59:03;;;;;;;1.67;0.93;;;23.30;54.00;;;;;;4986206;28;20197;-68
2023/10/08 03:01:33;;;;;;;6.17;0.80;;;24.20;59.50;;;;;;4993956;28;20529;-69
2023/10/08 03:04:08;;;;;;;6.50;1.07;;;25.40;52.50;;;;;;4993926;28;20237;-67
2023/10/08 03:06:38;;;;;;;3.33;0.90;;;25.80;55.90;;;;;;4991818;28;20574;-70
2023/10/08 03:09:05;;;;;;;3.83;0.77;;;26.60;50.30;;;;;;4984301;28;20191;-69
2023/10/08 03:11:35;;;;;;;3.40;1.17;;;27.30;40.10;;;;;;4994175;28;20198;-68
2023/10/08 03:14:02;;;;;;;1.77;0.90;;;27.40;40.10;;;;;;4993835;28;20581;-67
2023/10/08 03:16:34;;;;;;;3.07;1.03;;;27.20;42.40;;;;;;4993754;28;20175;-67
2023/10/08 03:19:08;;;;;;;2.93;1.03;;;27.50;42.70;;;;;;4978395;28;20194;-68
2023/10/08 03:26:55;;;;;;;3.40;1.03;;;27.90;35.90;;;;;;4993742;28;20242;-69
2023/10/08 03:29:30;;;;;;;4.80;1.47;;;26.90;33.50;;;;;;4993715;28;20190;-69
2023/10/08 03:31:57;;;;;;;3.43;0.90;;;25.70;39.20;;;;;;4993005;28;20317;-69
2023/10/08 03:35:01;;;;;;;4.10;1.00;;;25.00;40.60;;;;;;4993645;28;20237;-68
2023/10/08 03:37:41;;;;;;;1.60;1.00;;;24.50;38.40;;;;;;4990120;28;20294;-67
2023/10/08 03:40:43;;;;;;;2.60;0.87;;;23.90;37.40;;;;;;4935369;28;20242;-69
2023/10/08 03:43:15;;;;;;;2.30;1.17;;;23.50;44.90;;;;;;4935461;29;20201;-69
2023/10/08 03:45:53;;;;;;;1.00;0.60;;;23.40;44.50;;;;;;4935290;29;20251;-69
2023/10/08 03:48:22;;;;;;;3.67;1.00;;;23.30;45.10;;;;;;4935090;29;20256;-67
2023/10/08 03:50:56;;;;;;;3.17;0.90;;;23.50;42.40;;;;;;4922676;29;20530;-68
2023/10/08 03:56:46;;;;;;;2.37;1.30;;;23.10;62.60;;;;;;4953583;29;20564;-69
2023/10/08 03:59:33;;;;;;;1.90;1.20;;;23.10;74.90;;;;;;4938523;29;20193;-69
2023/10/08 04:02:13;;;;;;;4.03;1.63;;;23.10;79.40;;;;;;4954256;29;20206;-67
2023/10/08 04:08:05;;;;;;;3.87;1.37;;;23.60;80.30;;;;;;4931401;29;20697;-69
2023/10/08 04:11:07;;;;;;;3.40;1.47;;;23.40;76.50;;;;;;4945451;28;20590;-68
2023/10/08 04:13:23;;;;;;;3.27;1.27;;;23.10;86.10;;;;;;4939766;29;20193;-66
2023/10/08 04:15:50;;;;;;;3.73;1.40;;;22.80;91.20;;;;;;4934498;29;20189;-68
2023/10/08 04:18:20;;;;;;;3.67;1.30;;;22.70;89.30;;;;;;4942745;29;20199;-66
2023/10/08 04:21:09;;;;;;;5.83;1.40;;;23.20;82.40;;;;;;4953133;29;20243;-69
2023/10/08 04:23:36;;;;;;;4.10;1.30;;;23.60;78.30;;;;;;4962253;28;20209;-67
2023/10/08 04:26:06;;;;;;;5.07;1.30;;;24.10;78.00;;;;;;4957473;28;20222;-67
2023/10/08 04:28:35;;;;;;;4.13;1.40;;;24.60;74.10;;;;;;4975644;28;20218;-66
2023/10/08 04:31:14;;;;;;;5.07;1.40;;;24.80;73.50;;;;;;4994135;28;20696;-68
2023/10/08 04:33:46;;;;;;;6.67;1.60;;;25.00;73.20;;;;;;4974763;28;20269;-67
2023/10/08 04:36:18;;;;;;;5.13;1.10;;;24.80;72.60;;;;;;4974654;28;20183;-68
2023/10/08 04:38:47;;;;;;;3.30;1.10;;;24.30;76.90;;;;;;4985170;28;20194;-68
2023/10/08 04:41:58;;;;;;;7.40;1.30;;;23.70;81.10;;;;;;4993046;28;20195;-68
2023/10/08 04:44:25;;;;;;;4.70;1.40;;;23.30;85.50;;;;;;4987645;28;20183;-67
2023/10/08 04:46:53;;;;;;;5.13;1.53;;;22.90;88.00;;;;;;4957871;28;20219;-67
2023/10/08 04:49:28;;;;;;;4.80;1.50;;;23.30;91.30;;;;;;4974425;28;20198;-69
2023/10/08 04:52:13;;;;;;;3.57;1.40;;;23.60;89.80;;;;;;4974782;28;20187;-68
2023/10/08 04:54:51;;;;;;;4.87;1.23;;;24.00;90.60;;;;;;4974563;28;20183;-68
2023/10/08 04:57:22;;;;;;;3.37;1.23;;;24.30;88.50;;;;;;4988994;28;20178;-68
2023/10/08 04:59:50;;;;;;;5.30;1.13;;;24.20;85.90;;;;;;4993339;28;20193;-68
2023/10/08 05:02:40;;;;;;;2.63;0.90;;;23.90;84.30;;;;;;4993488;28;20273;-68
2023/10/08 05:15:41;;;;;;;3.73;1.10;;;23.00;93.00;;;;;;4979655;28;20275;-68
2023/10/08 05:19:06;;;;;;;3.87;1.13;;;22.90;96.30;;;;;;4956995;28;20179;-67
2023/10/08 05:21:04;;;;;;;3.63;1.20;;;23.10;93.50;;;;;;4973657;28;20195;-67
2023/10/08 05:23:53;;;;;;;3.17;0.90;;;22.70;95.50;;;;;;4981400;28;20178;-67
2023/10/08 05:26:30;;;;;;;5.00;1.10;;;22.70;99.60;;;;;;4980815;28;20261;-69
2023/10/08 05:29:01;;;;;;;3.17;1.50;;;22.70;96.30;;;;;;4959825;28;20679;-68
2023/10/08 05:34:33;;;;;;;3.30;1.27;;;22.50;97.20;;;;;;4960720;28;20232;-69
2023/10/08 05:39:42;;;;;;;3.17;1.17;;;22.30;99.60;;;;;;4965751;28;20192;-69
2023/10/08 05:42:16;;;;;;;3.03;1.23;;;22.20;99.90;;;;;;4984292;28;20190;-68
2023/10/08 05:44:50;;;;;;;6.40;1.40;;;22.20;99.90;;;;;;4961935;28;20598;-69
2023/10/08 05:48:27;;;;;;;3.30;1.00;;;22.10;99.90;;;;;;4957825;28;20222;-69
2023/10/08 05:55:36;;;;;;;2.13;0.97;;;21.90;99.90;;;;;;4981516;28;20233;-68
2023/10/08 05:58:13;;;;;;;5.83;1.20;;;22.00;99.90;;;;;;4993605;28;20230;-67
2023/10/08 06:06:36;;;;;;;8.13;1.63;;;21.90;99.90;;;;;;4924183;29;20307;-67
2023/10/08 06:11:55;;;;;;;3.67;1.30;;;22.10;99.90;;;;;;4961643;28;20213;-66
2023/10/08 06:14:52;;;;;;;5.57;1.60;;;22.00;99.90;;;;;;4977338;28;20186;-67
2023/10/08 06:17:34;;;;;;;1.57;1.10;;;21.90;99.90;;;;;;4976985;28;20648;-67
2023/10/08 06:20:09;;;;;;;8.03;1.17;;;21.90;99.90;;;;;;4980999;28;20565;-67
2023/10/08 06:22:37;;;;;;;2.40;1.20;;;22.10;99.90;;;;;;4996165;28;20553;-68
2023/10/08 06:25:22;;;;;;;3.30;1.20;;;21.90;99.90;;;;;;4996566;28;20201;-68
2023/10/08 06:28:09;;;;;;;2.13;1.00;;;21.80;99.90;;;;;;4981567;28;20237;-68
2023/10/08 06:30:40;;;;;;;4.10;1.00;;;22.10;99.90;;;;;;4976911;28;20277;-69
2023/10/08 06:33:11;;;;;;;2.60;1.00;;;22.00;99.90;;;;;;4976830;28;20664;-68
2023/10/08 06:35:43;;;;;;;3.90;0.90;;;21.70;99.90;;;;;;4980287;28;20234;-68
2023/10/08 06:38:50;;;;;;;2.17;1.30;;;21.60;99.90;;;;;;4976657;28;20197;-68
2023/10/08 06:41:18;;;;;;;4.40;1.33;;;21.50;99.90;;;;;;4970880;28;20181;-68
2023/10/08 06:43:49;;;;;;;3.53;1.10;;;21.50;99.90;;;;;;4992894;28;20175;-70
2023/10/08 06:46:23;;;;;;;6.23;0.97;;;21.40;99.90;;;;;;4965612;28;20198;-71
2023/10/08 06:48:53;;;;;;;2.67;1.10;;;21.50;99.90;;;;;;4981962;28;20322;-71
2023/10/08 06:51:21;;;;;;;4.67;1.40;;;21.70;99.90;;;;;;4993721;28;20179;-69
2023/10/08 06:53:49;;;;;;;4.67;1.20;;;21.40;99.90;;;;;;4975282;28;20899;-70
2023/10/08 06:56:19;;;;;;;6.20;1.20;;;21.00;99.90;;;;;;4956717;28;20187;-70
2023/10/08 06:58:48;;;;;;;4.30;1.27;;;20.90;99.90;;;;;;4974862;28;20193;-71
2023/10/08 07:01:24;;;;;;;7.57;1.40;;;20.60;99.90;;;;;;4974838;28;20214;-69
2023/10/08 07:04:03;;;;;;;3.43;1.00;;;20.40;99.90;;;;;;4975499;28;20201;-70
2023/10/08 07:06:37;;;;;;;3.73;1.20;;;20.20;99.90;;;;;;4974813;28;20198;-70
2023/10/08 07:09:13;;;;;;;7.93;1.37;;;20.10;99.90;;;;;;4957588;28;20221;-68
2023/10/08 07:11:45;;;;;;;3.73;1.03;;;20.00;99.90;;;;;;4958215;28;20591;-71
2023/10/08 07:14:14;;;;;;;3.87;1.43;;;20.10;99.90;;;;;;4974665;28;20195;-70
2023/10/08 07:16:43;;;;;;;3.30;1.30;;;20.10;99.90;;;;;;4974592;28;20642;-70
2023/10/08 07:19:18;;;;;;;6.00;1.33;;;20.10;99.90;;;;;;4956672;28;20188;-70
2023/10/08 07:21:47;;;;;;;3.23;1.20;;;20.00;99.90;;;;;;4983247;28;20213;-70
2023/10/08 07:24:23;;;;;;;4.63;1.50;;;20.00;99.90;;;;;;4985948;28;20629;-67
2023/10/08 07:26:55;;;;;;;6.23;1.40;;;19.90;99.90;;;;;;4976359;28;20535;-71
2023/10/08 07:29:25;;;;;;;2.63;1.03;;;19.80;99.90;;;;;;4993885;28;20202;-71
2023/10/08 07:31:52;;;;;;;7.63;1.40;;;19.60;99.90;;;;;;4993889;28;20285;-71
2023/10/08 07:36:52;;;;;;;4.43;1.10;;;19.40;99.90;;;;;;4993787;28;20236;-71
2023/10/08 07:42:07;;;;;;;2.10;1.07;;;19.10;99.90;;;;;;4993260;28;20191;-70
2023/10/08 07:44:39;;;;;;;3.40;1.17;;;19.00;99.90;;;;;;4993242;28;20192;-70
2023/10/08 07:47:13;;;;;;;4.67;1.47;;;18.90;99.90;;;;;;4975019;28;20243;-70
2023/10/08 07:49:44;;;;;;;5.20;1.37;;;18.70;99.90;;;;;;4992575;28;20245;-71
2023/10/08 07:52:19;;;;;;;3.03;0.83;;;18.70;99.90;;;;;;4993231;28;20241;-72
2023/10/08 07:54:48;;;;;;;3.50;1.00;;;18.60;99.90;;;;;;4975984;28;20215;-72
2023/10/08 07:57:58;;;;;;;4.40;1.17;;;18.60;99.90;;;;;;4974813;28;20220;-70
2023/10/08 08:00:38;;;;;;;6.00;1.07;;;18.50;99.90;;;;;;4993009;28;20233;-70
2023/10/08 08:03:06;;;;;;;5.40;1.50;;;18.40;99.90;;;;;;4987627;28;20649;-71
2023/10/08 08:05:37;;;;;;;5.00;1.40;;;18.30;99.90;;;;;;4973164;28;20669;-71
2023/10/08 08:08:06;;;;;;;4.03;1.30;;;18.20;99.90;;;;;;4956867;28;20266;-72
2023/10/08 08:10:38;;;;;;;3.00;1.10;;;18.20;99.90;;;;;;4971686;28;20207;-73
2023/10/08 08:13:08;;;;;;;5.63;1.73;;;18.10;99.90;;;;;;4964875;28;20186;-72
2023/10/08 08:15:42;;;;;;;3.47;1.60;;;18.10;99.90;;;;;;4976330;28;20195;-72
2023/10/08 08:21:36;;;;;;;4.77;1.53;;;17.90;99.90;;;;;;4987399;28;20264;-72
2023/10/08 08:24:08;;;;;;;3.97;1.30;;;17.90;99.90;;;;;;4972582;28;20608;-69
2023/10/08 08:26:40;;;;;;;7.67;1.33;;;17.90;99.90;;;;;;4976310;28;20338;-71
2023/10/08 08:29:08;;;;;;;4.37;1.10;;;17.80;99.90;;;;;;4990087;28;20209;-72
2023/10/08 08:35:00;;;;;;;2.63;1.00;;;17.70;99.90;;;;;;4973272;28;20194;-69
2023/10/08 08:37:30;;;;;;;4.73;1.17;;;17.60;99.90;;;;;;4977579;28;20176;-69
2023/10/08 08:39:59;;;;;;;1.43;1.00;;;17.60;99.90;;;;;;4953712;28;20191;-71
2023/10/08 08:42:29;;;;;;;4.47;1.20;;;17.50;99.90;;;;;;4992601;28;20187;-74
2023/10/08 08:45:00;;;;;;;7.17;1.10;;;17.50;99.90;;;;;;4992737;28;20181;-70
2023/10/08 08:47:28;;;;;;;2.97;0.97;;;17.50;99.90;;;;;;4992586;28;20232;-71
2023/10/08 08:50:00;;;;;;;1.30;0.80;;;17.40;99.90;;;;;;4975166;28;20554;-72
2023/10/08 08:52:29;;;;;;;2.07;1.00;;;17.40;99.90;;;;;;4987316;28;20238;-70
2023/10/08 08:54:57;;;;;;;4.13;1.20;;;17.30;99.90;;;;;;4965757;28;20194;-70
2023/10/08 08:57:25;;;;;;;9.87;1.30;;;17.30;99.90;;;;;;4992508;28;20178;-72
2023/10/08 08:59:58;;;;;;;1.67;1.00;;;17.30;99.90;;;;;;4991653;28;20178;-71
2023/10/08 09:02:32;;;;;;;4.70;1.37;;;17.20;99.90;;;;;;4975393;28;20733;-71
2023/10/08 09:05:12;;;;;;;4.70;1.00;;;17.20;99.90;;;;;;4977396;28;20195;-71
2023/10/08 09:08:04;;;;;;;3.40;0.90;;;17.20;99.90;;;;;;4989901;28;20206;-73
2023/10/08 09:10:51;;;;;;;3.80;1.10;;;17.20;99.90;;;;;;4977462;28;20175;-70
2023/10/08 09:13:25;;;;;;;2.83;1.13;;;17.20;99.90;;;;;;4973413;28;20543;-71
2023/10/08 09:16:06;;;;;;;6.53;1.40;;;17.00;99.90;;;;;;4973141;28;20214;-71
2023/10/08 09:18:35;;;;;;;4.30;1.23;;;16.90;99.90;;;;;;4968123;28;20199;-72
2023/10/08 09:21:13;;;;;;;3.83;1.10;;;16.90;99.90;;;;;;4973041;28;20171;-72
2023/10/08 09:23:47;;;;;;;2.17;1.00;;;16.80;99.90;;;;;;4972673;28;20179;-71
2023/10/08 09:26:18;;;;;;;5.20;1.23;;;16.90;99.90;;;;;;4956583;28;20179;-71
2023/10/08 09:28:52;;;;;;;1.03;0.90;;;16.80;99.90;;;;;;4972687;28;20226;-70
2023/10/08 09:31:24;;;;;;;5.53;1.50;;;16.80;99.90;;;;;;4954903;28;20226;-73
2023/10/08 09:33:58;;;;;;;3.07;1.27;;;16.70;99.90;;;;;;4972761;28;20548;-71
2023/10/08 09:36:33;;;;;;;3.50;0.90;;;16.80;99.90;;;;;;4972780;28;20189;-72
2023/10/08 09:39:20;;;;;;;3.73;1.07;;;16.80;99.90;;;;;;4972029;28;20183;-70
2023/10/08 09:42:00;;;;;;;3.50;1.00;;;16.60;99.90;;;;;;4973140;28;20231;-71
2023/10/08 09:44:29;;;;;;;4.17;1.40;;;16.60;99.90;;;;;;4971978;28;20273;-71
2023/10/08 09:47:06;;;;;;;4.43;1.23;;;16.50;99.90;;;;;;4954793;28;20217;-71
2023/10/08 09:49:56;;;;;;;1.70;1.10;;;16.40;99.90;;;;;;4972399;28;20191;-70
2023/10/08 09:52:34;;;;;;;3.13;1.07;;;16.40;99.90;;;;;;4956752;28;20183;-69
2023/10/08 09:55:10;;;;;;;2.80;1.20;;;16.30;99.90;;;;;;4973756;28;20179;-70
2023/10/08 09:57:39;;;;;;;2.60;1.10;;;16.20;99.90;;;;;;4978487;28;20210;-69
2023/10/08 10:00:18;;;;;;;4.40;1.30;;;16.10;99.90;;;;;;4992966;28;20197;-70
2023/10/08 10:02:49;;;;;;;3.23;1.33;;;16.10;99.90;;;;;;4993399;28;20186;-71
2023/10/08 10:05:24;;;;;;;4.93;1.70;;;16.00;99.90;;;;;;4992121;28;20189;-68
2023/10/08 10:07:55;;;;;;;5.33;1.67;;;15.90;99.90;;;;;;4975264;28;20308;-70
2023/10/08 10:10:38;;;;;;;8.13;2.17;;;15.80;99.90;;;;;;4996233;28;20262;-70
2023/10/08 10:13:09;;;;;;;4.50;2.13;;;15.80;99.90;;;;;;4980326;28;20187;-70
2023/10/08 10:15:42;;;;;;;3.00;2.03;;;15.70;99.90;;;;;;4996790;28;20193;-71
2023/10/08 10:18:22;;;;;;;5.97;2.70;;;15.60;99.90;;;;;;4997031;28;20216;-71
2023/10/08 10:21:02;;;;;;;5.20;2.40;;;15.50;99.90;;;;;;4996840;28;20668;-71
2023/10/08 10:23:44;;;;;;;6.20;2.47;;;15.60;99.90;;;;;;4996953;28;20193;-73
2023/10/08 10:26:26;;;;;;;7.77;2.40;;;15.50;99.90;;;;;;4997052;28;20702;-71
2023/10/08 10:29:14;;;;;;;5.60;1.53;;;15.30;99.90;;;;;;4985872;28;20658;-71
2023/10/08 10:31:46;;;;;;;3.80;1.60;;;15.30;99.90;;;;;;4989413;28;20341;-69
2023/10/08 10:34:20;;;;;;;3.53;1.40;;;15.20;99.90;;;;;;4996806;28;20209;-72
2023/10/08 10:36:50;;;;;;;3.00;1.27;;;15.10;99.90;;;;;;4984279;28;20605;-71
2023/10/08 10:39:27;;;;;;;3.30;1.10;;;15.10;99.90;;;;;;4978956;28;20585;-72
2023/10/08 10:42:20;;;;;;;3.90;1.17;;;15.10;99.90;;;;;;4995985;28;20182;-71
2023/10/08 10:44:53;;;;;;;2.07;1.20;;;15.00;99.90;;;;;;4981031;28;20223;-70
2023/10/08 10:47:42;;;;;;;4.40;1.30;;;14.90;99.90;;;;;;4959398;28;20215;-69
2023/10/08 10:50:25;;;;;;;3.30;1.50;;;14.80;99.90;;;;;;4945841;28;20210;-71
2023/10/08 10:52:57;;;;;;;2.37;1.40;;;14.80;99.90;;;;;;4976500;28;20529;-71
2023/10/08 10:55:32;;;;;;;4.10;1.60;;;14.70;99.90;;;;;;4976602;28;20201;-71
2023/10/08 10:58:38;;;;;;;2.27;1.20;;;14.70;99.90;;;;;;4976754;28;20715;-71
2023/10/08 11:00:58;;;;;;;3.83;1.30;;;14.60;99.90;;;;;;4973895;28;20199;-72
2023/10/08 11:03:28;;;;;;;4.30;1.80;;;14.60;99.90;;;;;;4989884;28;20657;-69
2023/10/08 11:06:15;;;;;;;2.53;1.57;;;14.50;99.90;;;;;;4987038;28;20245;-68
2023/10/08 11:08:47;;;;;;;3.77;1.60;;;14.40;99.90;;;;;;4987136;28;20215;-70
2023/10/08 11:11:17;;;;;;;3.33;1.57;;;14.40;99.90;;;;;;4976621;28;20535;-69
2023/10/08 11:13:54;;;;;;;4.43;1.50;;;14.40;99.90;;;;;;4976213;28;20711;-70
2023/10/08 11:19:48;;;;;;;2.83;1.40;;;14.30;99.90;;;;;;4988649;28;20659;-70
2023/10/08 11:22:22;;;;;;;2.77;1.73;;;14.30;99.90;;;;;;4994121;28;20318;-70
2023/10/08 11:24:56;;;;;;;3.47;1.57;;;14.20;99.90;;;;;;4978193;28;20194;-70
2023/10/08 11:27:35;;;;;;;4.03;1.70;;;14.20;99.90;;;;;;4959832;28;20203;-70
2023/10/08 11:30:10;;;;;;;5.83;1.47;;;14.10;99.90;;;;;;4988608;28;21374;-70
2023/10/08 11:32:41;;;;;;;5.20;2.10;;;14.10;99.90;;;;;;4961368;28;21028;-69
2023/10/08 11:35:18;;;;;;;2.67;1.60;;;14.10;99.90;;;;;;4960168;28;20217;-70
2023/10/08 11:37:50;;;;;;;3.47;1.90;;;14.00;99.90;;;;;;4989177;28;20284;-70
2023/10/08 11:41:13;;;;;;;3.07;1.63;;;14.00;99.90;;;;;;4994325;28;20253;-71
2023/10/08 11:43:21;;;;;;;3.63;1.67;;;14.00;99.90;;;;;;4970950;28;20201;-70
2023/10/08 11:45:49;;;;;;;2.70;1.70;;;13.90;99.90;;;;;;4960252;28;20186;-70
2023/10/08 11:48:28;;;;;;;3.63;1.93;;;13.90;99.90;;;;;;4975662;28;20309;-70
2023/10/08 11:51:01;;;;;;;3.63;1.60;;;13.80;99.90;;;;;;4975550;28;20194;-71
2023/10/08 11:53:31;;;;;;;4.27;1.80;;;13.80;99.90;;;;;;4975886;28;20202;-70
2023/10/08 11:55:59;;;;;;;3.43;1.50;;;13.80;99.90;;;;;;4982603;28;20190;-71
2023/10/08 11:58:37;;;;;;;3.70;1.60;;;13.70;99.90;;;;;;4994316;28;20552;-70
2023/10/08 12:01:05;;;;;;;3.97;1.70;;;13.70;99.90;;;;;;4995190;28;20279;-70
2023/10/08 12:03:34;;;;;;;4.87;1.40;;;13.70;99.90;;;;;;4994018;28;20193;-72
2023/10/08 12:06:05;;;;;;;2.60;1.90;;;13.70;99.90;;;;;;4994252;28;20203;-71
2023/10/08 12:08:39;;;;;;;6.47;1.60;;;13.70;99.90;;;;;;4994048;28;20216;-70
2023/10/08 12:11:17;;;;;;;3.60;1.90;;;13.60;99.90;;;;;;4989894;28;20273;-70
2023/10/08 12:13:46;;;;;;;5.80;1.60;;;13.60;99.90;;;;;;4957708;28;20197;-73
2023/10/08 12:16:22;;;;;;;4.20;1.73;;;13.60;99.90;;;;;;4957574;28;20670;-72
2023/10/08 12:18:58;;;;;;;4.37;1.53;;;13.50;99.90;;;;;;4981107;28;20198;-73
2023/10/08 12:21:29;;;;;;;4.97;1.70;;;13.50;99.90;;;;;;4977833;28;20205;-71
2023/10/08 12:23:59;;;;;;;4.63;1.73;;;13.40;99.90;;;;;;4958644;28;20197;-71
2023/10/08 12:26:26;;;;;;;4.40;1.70;;;13.40;99.90;;;;;;4984179;28;20644;-71
2023/10/08 12:29:19;;;;;;;4.17;1.70;;;13.40;99.90;;;;;;4991683;28;20237;-70
2023/10/08 12:31:47;;;;;;;5.77;1.67;;;13.30;99.90;;;;;;4974289;28;20257;-72
2023/10/08 12:34:22;;;;;;;3.57;1.70;;;13.30;99.90;;;;;;4957763;28;20886;-70
2023/10/08 12:36:51;;;;;;;3.10;1.63;;;13.30;99.90;;;;;;4975171;28;20213;-70
2023/10/08 12:39:27;;;;;;;2.70;1.50;;;13.20;99.90;;;;;;4975595;28;20195;-71
2023/10/08 12:42:05;;;;;;;3.43;1.70;;;13.20;99.90;;;;;;4975992;28;20664;-71
2023/10/08 12:44:33;;;;;;;2.03;1.50;;;13.20;99.90;;;;;;4976052;28;20189;-71
2023/10/08 12:47:05;;;;;;;4.20;1.90;;;13.20;99.90;;;;;;4992697;28;20694;-71
2023/10/08 12:49:34;;;;;;;5.17;1.73;;;13.10;99.90;;;;;;4993587;28;20212;-72
2023/10/08 12:52:03;;;;;;;3.90;1.70;;;13.10;99.90;;;;;;4977451;28;20723;-70
2023/10/08 12:54:33;;;;;;;3.50;1.90;;;13.00;99.90;;;;;;4957791;28;20206;-70
2023/10/08 12:57:01;;;;;;;3.50;1.90;;;13.00;99.90;;;;;;4975064;28;20263;-70
2023/10/08 12:59:32;;;;;;;2.63;1.67;;;13.00;99.90;;;;;;4974984;28;20216;-71
2023/10/08 13:02:07;;;;;;;4.87;1.90;;;12.90;99.90;;;;;;4975076;28;20182;-70
2023/10/08 13:04:36;;;;;;;2.73;1.70;;;13.00;99.90;;;;;;4957516;28;20191;-71
2023/10/08 13:07:07;;;;;;;3.83;1.87;;;12.90;99.90;;;;;;4966690;28;20268;-70
2023/10/08 13:09:36;;;;;;;4.43;1.80;;;12.90;99.90;;;;;;4959778;28;20243;-72
2023/10/08 13:12:05;;;;;;;2.40;1.60;;;12.90;99.90;;;;;;4993542;28;20189;-67
2023/10/08 13:14:40;;;;;;;4.37;1.90;;;12.80;99.90;;;;;;4963729;28;20198;-69
2023/10/08 13:17:11;;;;;;;5.20;1.73;;;12.80;99.90;;;;;;4993837;28;20189;-69
2023/10/08 13:19:41;;;;;;;4.20;2.33;;;12.80;99.90;;;;;;4976640;28;20181;-70
2023/10/08 13:22:11;;;;;;;4.80;1.80;;;12.70;99.90;;;;;;4976869;28;20186;-70
2023/10/08 13:24:41;;;;;;;3.60;1.57;;;12.70;99.90;;;;;;4994354;28;20249;-71
2023/10/08 13:27:09;;;;;;;3.03;1.90;;;12.70;99.90;;;;;;4992768;28;20736;-70
2023/10/08 13:29:37;;;;;;;3.60;1.63;;;12.60;99.90;;;;;;4991963;28;20237;-70
2023/10/08 13:32:05;;;;;;;4.60;1.87;;;12.60;99.90;;;;;;4974244;28;20233;-70
2023/10/08 13:34:33;;;;;;;5.17;1.70;;;12.60;99.90;;;;;;4940847;28;20191;-71
2023/10/08 13:37:11;;;;;;;3.50;1.63;;;12.50;99.90;;;;;;4974550;28;20328;-71
2023/10/08 13:39:40;;;;;;;3.87;1.63;;;12.50;99.90;;;;;;4974351;28;20193;-71
2023/10/08 13:42:08;;;;;;;9.07;2.13;;;12.50;99.90;;;;;;4974028;28;20667;-71
2023/10/08 13:44:36;;;;;;;6.97;2.53;;;12.40;99.90;;;;;;4958698;28;20277;-71
2023/10/08 13:47:05;;;;;;;3.90;1.70;;;12.40;99.90;;;;;;4997354;28;20209;-71
2023/10/08 13:49:36;;;;;;;4.83;1.70;;;12.40;99.90;;;;;;4997172;28;20181;-71
2023/10/08 13:52:07;;;;;;;5.60;2.43;;;12.30;99.90;;;;;;4997188;28;20184;-69
2023/10/08 13:54:41;;;;;;;5.20;1.70;;;12.30;99.90;;;;;;4997350;28;20180;-70
2023/10/08 13:57:14;;;;;;;3.43;1.80;;;12.30;99.90;;;;;;4997424;28;20178;-69
2023/10/08 13:59:46;;;;;;;4.00;2.07;;;12.30;99.90;;;;;;4996482;28;20652;-69
2023/10/08 14:02:21;;;;;;;4.63;1.50;;;12.20;99.90;;;;;;4997204;28;20177;-70
2023/10/08 14:04:50;;;;;;;3.10;1.70;;;12.20;99.90;;;;;;4997379;28;20669;-69
2023/10/08 14:07:27;;;;;;;3.13;1.57;;;12.20;99.90;;;;;;4997168;28;20212;-69
2023/10/08 14:09:56;;;;;;;6.40;1.93;;;12.10;99.90;;;;;;4996499;28;20192;-70
2023/10/08 14:12:24;;;;;;;3.57;2.00;;;12.10;99.90;;;;;;4997069;28;20207;-70
2023/10/08 14:14:55;;;;;;;2.97;1.60;;;12.10;99.90;;;;;;4996868;28;20276;-70
2023/10/08 14:17:42;;;;;;;6.67;2.00;;;12.10;99.90;;;;;;4995246;28;20194;-70
2023/10/08 14:20:21;;;;;;;4.70;1.93;;;12.10;99.90;;;;;;4979134;28;20662;-69
2023/10/08 14:22:57;;;;;;;8.47;1.60;;;12.00;99.90;;;;;;4996553;28;20185;-70
2023/10/08 14:25:33;;;;;;;3.83;1.87;;;12.00;99.90;;;;;;4996587;28;20696;-70
2023/10/08 14:28:08;;;;;;;2.50;1.47;;;12.00;99.90;;;;;;4996597;28;20211;-70
2023/10/08 14:30:41;;;;;;;3.20;1.83;;;12.00;99.90;;;;;;4979715;28;20314;-70
2023/10/08 14:33:13;;;;;;;3.00;1.80;;;11.90;99.90;;;;;;4977309;28;20193;-70
2023/10/08 14:44:06;;;;;;;4.93;1.60;;;11.80;99.90;;;;;;4977247;28;20668;-70
2023/10/08 14:46:36;;;;;;;4.23;1.97;;;11.80;99.90;;;;;;4976977;28;20176;-70
2023/10/08 14:49:09;;;;;;;3.00;1.90;;;11.80;99.90;;;;;;4976826;28;20224;-70